Troy, NY

10:09 PM EDT on April 20, 2015 (GMT -0400)
Brunswick, NY | | Change Station
CLOSE
Current Station
Personal Weather Station
Location: Troy, NY
Elevation: 853 ft
Nearby Weather Stations

Elev 853 ft 42.77 °N, 73.58 °W | Updated 9 minutes ago

Overcast
Overcast
53.5 °F
Feels Like 53.5 °F
N
1.0
Wind Variable Wind from SE
Gusts 11.0 mph

Today
High -- | Low -- °F
--% Chance of Precip.
Yesterday
High -- | Low -- °F
Precip. -- in
6:05 AM 7:42 PM
Waxing Crescent, 7% visible
Pressure 29.66 in
Visibility 10.0 miles
Clouds Overcast 2500 ft
Dew Point 48 °F
Humidity 81%
Rainfall 0.09 in
Snow Depth Not available.
UV 0 out of 12
Pollen 4.50 out of 12
Air Quality Not available.
Flu Activity Widespread
METAR KALB 210151Z 00000KT 10SM OVC025 12/08 A2966 RMK AO2 SLP043 T01170078

More Conditions Fewer Conditions

Pressure 29.66 in
Visibility 10.0 miles
Clouds Overcast 2500 ft
Dew Point 48 °F
Humidity 81%
Rainfall 0.09 in
Snow Depth Not available.
UV 0 out of 12
Pollen 4.50 out of 12
Air Quality Not available.
Flu Activity Widespread
METAR KALB 210151Z 00000KT 10SM OVC025 12/08 A2966 RMK AO2 SLP043 T01170078

More Conditions Fewer Conditions

10-Day Weather Forecast

Almanac

Astronomy

Apr. 20, 2015 Rise Set
Actual Time
Civil Twilight
Nautical Twilight
Astronomical Twilight
Moon
Length of Visible Light
Length of Day
Tomorrow will be .
, % of the Moon is Illuminated

Today's Extremes

State Highs State Lows

Community

WunderPhotos

Upload Photos

1,815,278 photos uploaded!

WunderBlogs® & News

Nearby

Air Quality

  Air Quality AQ Index Pollutant
Not available.

Snow Depth

Station Depth Elevation

Earthquake Activity

City Distance Mag. Time & Date
Minimum magnitude displayed is 2.5.

Coastal Water Temperatures

Place Temperature

Stations

Nearby Weather Stations

Station Location Temp. Windchill Dew Point Humidity Wind Precip. Elev Updated Type